Time;durP1;ratioP1;P1;durP2;ratioP2;P2;SDS_P1;SDS_P2;PMS_P1;PMS_P2;Temp;Humidity;BMP_temperature;BMP_pressure;BME280_temperature;BME280_humidity;BME280_pressure;Samples;Min_cycle;Max_cycle;Signal;HPM_P1;HPM_P2
2022/10/18 00:01:13;;;;;;;;;25.33;21.00;;;;;;;;5017216;28;46396;-71
2022/10/18 00:03:38;;;;;;;;;147.00;140.33;;;;;;;;5016542;28;45444;-71
2022/10/18 00:06:04;;;;;;;;;52.67;43.00;;;;;;;;5019535;28;45629;-72
2022/10/18 00:08:30;;;;;;;;;33.67;31.67;;;;;;;;5018780;28;45384;-71
2022/10/18 00:10:55;;;;;;;;;29.33;26.00;;;;;;;;5019123;28;45864;-71
2022/10/18 00:13:21;;;;;;;;;35.67;29.00;;;;;;;;5018255;28;45357;-71
2022/10/18 00:15:51;;;;;;;;;31.67;24.33;;;;;;;;5018169;28;45456;-71
2022/10/18 00:18:16;;;;;;;;;24.00;21.67;;;;;;;;5016553;28;45535;-71
2022/10/18 00:20:42;;;;;;;;;25.67;21.67;;;;;;;;5016965;28;46174;-72
2022/10/18 00:23:07;;;;;;;;;25.33;23.33;;;;;;;;5018933;28;45242;-72
2022/10/18 00:25:32;;;;;;;;;27.00;22.33;;;;;;;;5017349;28;45388;-72
2022/10/18 00:27:57;;;;;;;;;27.33;20.00;;;;;;;;5019090;28;45401;-72
2022/10/18 00:30:23;;;;;;;;;24.00;22.67;;;;;;;;5018712;28;46366;-72
2022/10/18 00:32:49;;;;;;;;;26.33;21.33;;;;;;;;5020094;28;45321;-72
2022/10/18 00:35:14;;;;;;;;;26.00;19.33;;;;;;;;5030723;28;45352;-72
2022/10/18 00:37:39;;;;;;;;;23.33;21.67;;;;;;;;5018372;28;45360;-72
2022/10/18 00:40:05;;;;;;;;;25.33;18.33;;;;;;;;5017718;28;45751;-72
2022/10/18 00:42:31;;;;;;;;;24.33;22.33;;;;;;;;5017854;28;45422;-72
2022/10/18 00:45:02;;;;;;;;;20.00;20.00;;;;;;;;5017022;28;45482;-72
2022/10/18 00:47:28;;;;;;;;;20.33;19.00;;;;;;;;5016002;28;45253;-72
2022/10/18 00:49:55;;;;;;;;;20.33;20.33;;;;;;;;5017288;28;46249;-72
2022/10/18 00:52:23;;;;;;;;;25.67;23.67;;;;;;;;5017737;28;45511;-72
2022/10/18 00:54:49;;;;;;;;;28.00;24.33;;;;;;;;5018867;28;45477;-72
2022/10/18 00:57:14;;;;;;;;;23.33;19.67;;;;;;;;5017883;28;45449;-72
2022/10/18 00:59:40;;;;;;;;;24.67;23.33;;;;;;;;5017357;28;45557;-72
2022/10/18 01:02:06;;;;;;;;;25.00;20.00;;;;;;;;5018489;28;45684;-72
2022/10/18 01:04:32;;;;;;;;;27.00;21.00;;;;;;;;5018393;28;45448;-72
2022/10/18 01:07:03;;;;;;;;;26.33;22.00;;;;;;;;5021028;28;45426;-72
2022/10/18 01:09:37;;;;;;;;;24.33;23.00;;;;;;;;5035234;28;46296;-72
2022/10/18 01:12:23;;;;;;;;;20.00;17.33;;;;;;;;5016743;28;45418;-72
2022/10/18 01:15:01;;;;;;;;;33.33;25.00;;;;;;;;4994925;28;45796;-72
2022/10/18 01:17:38;;;;;;;;;28.33;24.33;;;;;;;;4995569;28;45323;-72
2022/10/18 01:20:15;;;;;;;;;28.33;21.67;;;;;;;;4994356;28;46614;-74
2022/10/18 01:22:48;;;;;;;;;22.00;19.00;;;;;;;;4995673;28;45489;-73
2022/10/18 01:25:22;;;;;;;;;28.33;24.67;;;;;;;;4992500;28;45405;-72
2022/10/18 01:27:51;;;;;;;;;22.00;19.33;;;;;;;;4976471;28;45330;-72
2022/10/18 01:30:35;;;;;;;;;29.33;25.00;;;;;;;;4975823;28;45391;-72
2022/10/18 01:33:12;;;;;;;;;25.67;22.67;;;;;;;;4976124;28;45494;-72
2022/10/18 01:35:39;;;;;;;;;30.00;26.33;;;;;;;;4984854;28;45418;-72
2022/10/18 01:38:08;;;;;;;;;29.00;26.67;;;;;;;;4995983;28;45533;-72
2022/10/18 01:40:33;;;;;;;;;29.33;25.33;;;;;;;;4995592;28;45499;-72
2022/10/18 01:42:59;;;;;;;;;27.00;21.00;;;;;;;;4994916;28;45462;-72
2022/10/18 01:45:25;;;;;;;;;29.00;22.33;;;;;;;;4995397;28;45697;-72
2022/10/18 01:47:51;;;;;;;;;23.67;20.33;;;;;;;;4994985;28;45359;-73
2022/10/18 01:50:26;;;;;;;;;27.00;22.33;;;;;;;;4994902;28;46651;-73
2022/10/18 01:52:51;;;;;;;;;23.00;22.00;;;;;;;;5014199;28;45517;-73
2022/10/18 01:55:19;;;;;;;;;23.00;21.00;;;;;;;;5016286;28;45443;-73
2022/10/18 01:58:01;;;;;;;;;17.67;17.67;;;;;;;;5018477;28;45226;-72
2022/10/18 02:00:38;;;;;;;;;22.00;22.00;;;;;;;;5016357;28;45324;-72
2022/10/18 02:03:08;;;;;;;;;26.67;22.33;;;;;;;;5017534;28;45409;-70
2022/10/18 02:05:40;;;;;;;;;23.67;23.33;;;;;;;;5016702;28;45314;-72
2022/10/18 02:08:07;;;;;;;;;19.67;18.00;;;;;;;;5017247;28;45357;-71
2022/10/18 02:10:37;;;;;;;;;27.67;22.33;;;;;;;;5015834;28;46746;-71
2022/10/18 02:13:02;;;;;;;;;27.00;24.00;;;;;;;;5017445;28;45629;-72
2022/10/18 02:15:38;;;;;;;;;24.67;23.33;;;;;;;;5017499;28;45422;-71
2022/10/18 02:18:07;;;;;;;;;21.67;21.33;;;;;;;;5017650;28;45160;-71
2022/10/18 02:20:32;;;;;;;;;25.33;22.33;;;;;;;;5015705;28;46593;-71
2022/10/18 02:22:59;;;;;;;;;25.67;21.00;;;;;;;;5015152;28;45522;-71
2022/10/18 02:25:26;;;;;;;;;25.67;23.00;;;;;;;;5017249;28;45325;-71
2022/10/18 02:27:52;;;;;;;;;22.67;20.00;;;;;;;;5017185;28;45442;-71
2022/10/18 02:30:18;;;;;;;;;25.67;21.67;;;;;;;;5015038;28;46258;-71
2022/10/18 02:32:51;;;;;;;;;25.67;21.00;;;;;;;;5026398;28;45493;-69
2022/10/18 02:35:23;;;;;;;;;21.67;20.67;;;;;;;;5037105;28;45245;-70
2022/10/18 02:37:49;;;;;;;;;27.33;22.00;;;;;;;;5020100;28;45412;-73
2022/10/18 02:40:15;;;;;;;;;30.00;28.00;;;;;;;;5016286;28;45601;-72
2022/10/18 02:42:46;;;;;;;;;29.67;26.00;;;;;;;;5016794;28;45399;-72
2022/10/18 02:45:12;;;;;;;;;26.00;20.67;;;;;;;;5016384;28;45318;-71
2022/10/18 02:47:37;;;;;;;;;28.67;24.00;;;;;;;;5017112;28;45293;-71
2022/10/18 02:50:02;;;;;;;;;28.33;22.33;;;;;;;;5015929;28;46616;-72
2022/10/18 02:52:27;;;;;;;;;28.67;25.67;;;;;;;;5017030;28;45252;-71
2022/10/18 02:54:53;;;;;;;;;30.00;25.67;;;;;;;;5008133;28;45414;-71
2022/10/18 02:57:18;;;;;;;;;25.00;21.33;;;;;;;;4997316;28;45278;-71
2022/10/18 02:59:43;;;;;;;;;29.00;24.33;;;;;;;;5005387;28;46188;-71
2022/10/18 03:02:08;;;;;;;;;31.33;23.67;;;;;;;;5015928;28;45294;-71
2022/10/18 03:04:33;;;;;;;;;26.67;23.67;;;;;;;;5016955;28;45438;-71
2022/10/18 03:06:59;;;;;;;;;28.67;26.00;;;;;;;;5016951;28;45230;-72
2022/10/18 03:09:24;;;;;;;;;28.00;26.00;;;;;;;;5015089;28;45448;-72
2022/10/18 03:11:49;;;;;;;;;28.67;24.33;;;;;;;;5015394;28;45226;-71
2022/10/18 03:14:14;;;;;;;;;25.67;20.00;;;;;;;;5016743;28;45480;-71
2022/10/18 03:16:40;;;;;;;;;34.67;23.00;;;;;;;;5015923;28;45327;-71
2022/10/18 03:19:05;;;;;;;;;26.67;22.33;;;;;;;;5015943;28;45533;-71
2022/10/18 03:21:30;;;;;;;;;24.67;24.67;;;;;;;;5016665;28;45733;-71
2022/10/18 03:23:57;;;;;;;;;28.33;22.67;;;;;;;;5016635;28;45368;-71
2022/10/18 03:26:22;;;;;;;;;26.33;24.33;;;;;;;;5016383;28;45451;-71
2022/10/18 03:28:47;;;;;;;;;23.33;22.00;;;;;;;;5015760;28;46886;-72
2022/10/18 03:31:13;;;;;;;;;30.67;26.33;;;;;;;;5015164;28;45417;-71
2022/10/18 03:33:38;;;;;;;;;21.67;21.67;;;;;;;;5016513;28;45400;-71
2022/10/18 03:36:03;;;;;;;;;29.00;25.33;;;;;;;;5015872;28;45314;-70
2022/10/18 03:38:29;;;;;;;;;26.33;21.00;;;;;;;;5017657;28;46890;-71
2022/10/18 03:40:54;;;;;;;;;27.00;23.33;;;;;;;;5019860;28;45306;-70
2022/10/18 03:43:19;;;;;;;;;30.67;25.67;;;;;;;;5019843;28;45428;-71
2022/10/18 03:45:44;;;;;;;;;27.33;25.33;;;;;;;;5017914;28;45507;-72
2022/10/18 03:48:09;;;;;;;;;24.33;20.33;;;;;;;;5018834;28;47167;-71
2022/10/18 03:50:35;;;;;;;;;39.33;36.67;;;;;;;;5019427;28;45435;-71
2022/10/18 03:53:00;;;;;;;;;26.67;24.33;;;;;;;;5023713;28;45394;-71
2022/10/18 03:55:25;;;;;;;;;28.00;26.67;;;;;;;;5028494;28;45440;-71
2022/10/18 03:57:50;;;;;;;;;26.00;26.00;;;;;;;;5019455;28;46521;-71
2022/10/18 04:00:15;;;;;;;;;23.33;22.67;;;;;;;;5018818;28;45524;-71
2022/10/18 04:02:41;;;;;;;;;31.67;22.33;;;;;;;;5018184;28;45255;-71
2022/10/18 04:05:06;;;;;;;;;24.67;24.67;;;;;;;;5019666;28;45549;-70
2022/10/18 04:07:32;;;;;;;;;28.33;27.00;;;;;;;;5018978;28;46384;-71
2022/10/18 04:09:57;;;;;;;;;28.67;25.33;;;;;;;;5016886;28;45250;-71
2022/10/18 04:12:22;;;;;;;;;29.67;25.00;;;;;;;;5018114;28;45427;-71
2022/10/18 04:14:47;;;;;;;;;28.00;26.00;;;;;;;;5019480;28;45298;-71
2022/10/18 04:17:13;;;;;;;;;20.33;19.67;;;;;;;;5018140;28;46802;-72
2022/10/18 04:19:39;;;;;;;;;25.67;23.67;;;;;;;;5017685;28;45324;-73
2022/10/18 04:22:05;;;;;;;;;25.33;25.00;;;;;;;;5019421;28;45309;-72
2022/10/18 04:24:30;;;;;;;;;26.00;23.00;;;;;;;;5018696;28;45358;-72
2022/10/18 04:26:55;;;;;;;;;30.33;24.67;;;;;;;;5019193;28;46288;-72
2022/10/18 04:29:20;;;;;;;;;27.00;23.33;;;;;;;;5018913;28;45744;-74
2022/10/18 04:31:45;;;;;;;;;28.33;21.67;;;;;;;;5019151;28;45428;-71
2022/10/18 04:34:11;;;;;;;;;34.67;22.00;;;;;;;;5019132;28;45411;-71
2022/10/18 04:36:36;;;;;;;;;29.67;24.00;;;;;;;;5017470;28;45481;-71
2022/10/18 04:39:01;;;;;;;;;24.00;20.00;;;;;;;;5017966;28;45444;-71
2022/10/18 04:41:27;;;;;;;;;21.67;20.67;;;;;;;;5018898;28;45380;-71
2022/10/18 04:43:52;;;;;;;;;28.00;25.67;;;;;;;;5018917;28;45381;-70
2022/10/18 04:46:17;;;;;;;;;23.00;20.67;;;;;;;;5018756;28;45616;-70
2022/10/18 04:48:42;;;;;;;;;24.67;19.67;;;;;;;;5017451;28;45385;-69
2022/10/18 04:51:07;;;;;;;;;26.00;24.67;;;;;;;;5017802;28;45254;-70
2022/10/18 04:53:33;;;;;;;;;21.00;18.33;;;;;;;;5018378;28;45535;-72
2022/10/18 04:55:58;;;;;;;;;19.00;18.00;;;;;;;;5018476;28;45439;-71
2022/10/18 04:58:24;;;;;;;;;20.67;18.67;;;;;;;;5018598;28;45404;-72
2022/10/18 05:00:49;;;;;;;;;26.00;22.33;;;;;;;;5018361;28;45431;-72
2022/10/18 05:03:15;;;;;;;;;56.33;47.00;;;;;;;;5018713;28;45416;-72
2022/10/18 05:05:40;;;;;;;;;38.33;35.33;;;;;;;;5018204;28;45816;-72
2022/10/18 05:08:06;;;;;;;;;38.00;30.00;;;;;;;;5015911;28;45703;-72
2022/10/18 05:10:31;;;;;;;;;29.33;26.67;;;;;;;;5018431;28;45251;-71
2022/10/18 05:12:56;;;;;;;;;26.00;22.67;;;;;;;;5018572;28;45164;-71
2022/10/18 05:15:21;;;;;;;;;28.00;21.33;;;;;;;;5017808;28;45426;-71
2022/10/18 05:17:47;;;;;;;;;23.67;19.67;;;;;;;;5018317;28;45202;-71
2022/10/18 05:20:12;;;;;;;;;30.67;29.33;;;;;;;;5017491;28;45773;-71
2022/10/18 05:22:37;;;;;;;;;36.33;25.67;;;;;;;;5016514;28;46060;-71
2022/10/18 05:25:02;;;;;;;;;21.00;16.33;;;;;;;;5018080;28;45526;-72
2022/10/18 05:27:28;;;;;;;;;16.33;13.67;;;;;;;;5018233;28;45288;-72
2022/10/18 05:29:53;;;;;;;;;25.67;20.00;;;;;;;;5018016;28;45337;-72
2022/10/18 05:32:18;;;;;;;;;27.00;21.00;;;;;;;;5017438;28;45361;-72
2022/10/18 05:34:43;;;;;;;;;23.00;19.67;;;;;;;;5016673;28;45426;-72
2022/10/18 05:37:09;;;;;;;;;26.33;22.33;;;;;;;;5017723;28;45211;-72
2022/10/18 05:39:35;;;;;;;;;25.67;21.67;;;;;;;;5016990;28;45259;-71
2022/10/18 05:42:01;;;;;;;;;26.67;21.67;;;;;;;;5018090;28;45380;-70
2022/10/18 05:44:26;;;;;;;;;26.67;22.00;;;;;;;;5015618;28;45824;-70
2022/10/18 05:46:51;;;;;;;;;27.00;24.33;;;;;;;;5017741;28;45345;-70
2022/10/18 05:49:17;;;;;;;;;23.67;19.33;;;;;;;;5017529;28;45339;-70
2022/10/18 05:51:42;;;;;;;;;30.67;24.00;;;;;;;;5018133;28;45247;-70
2022/10/18 05:54:08;;;;;;;;;25.67;23.33;;;;;;;;5015501;28;47478;-71
2022/10/18 05:56:34;;;;;;;;;29.33;22.67;;;;;;;;5016263;28;45432;-71
2022/10/18 05:58:59;;;;;;;;;22.67;19.33;;;;;;;;5017679;28;45389;-71
2022/10/18 06:01:24;;;;;;;;;19.00;17.00;;;;;;;;5015941;28;45371;-71
2022/10/18 06:03:49;;;;;;;;;26.67;23.00;;;;;;;;5016429;28;47400;-71
2022/10/18 06:06:15;;;;;;;;;21.33;20.33;;;;;;;;5017282;28;45419;-71
2022/10/18 06:08:41;;;;;;;;;23.00;18.00;;;;;;;;5017595;28;45316;-73
2022/10/18 06:11:07;;;;;;;;;23.00;21.67;;;;;;;;5017669;28;45315;-73
2022/10/18 06:13:32;;;;;;;;;23.33;18.67;;;;;;;;5015967;28;46065;-73
2022/10/18 06:15:57;;;;;;;;;26.67;22.00;;;;;;;;5017368;28;45404;-73
2022/10/18 06:18:23;;;;;;;;;22.67;22.67;;;;;;;;5016479;28;45210;-73
2022/10/18 06:20:48;;;;;;;;;26.67;23.33;;;;;;;;5017381;28;45377;-72
2022/10/18 06:23:13;;;;;;;;;26.00;22.67;;;;;;;;5017071;28;47373;-73
2022/10/18 06:25:38;;;;;;;;;29.33;23.33;;;;;;;;5017155;28;45249;-73
2022/10/18 06:28:04;;;;;;;;;26.67;25.00;;;;;;;;5016720;28;45219;-71
2022/10/18 06:30:29;;;;;;;;;44.67;35.33;;;;;;;;5014514;28;45447;-71
2022/10/18 06:32:58;;;;;;;;;34.00;29.00;;;;;;;;5017099;28;46462;-72
2022/10/18 06:35:23;;;;;;;;;29.67;27.00;;;;;;;;5015823;28;45563;-71
2022/10/18 06:37:49;;;;;;;;;32.00;26.67;;;;;;;;5017222;28;45382;-71
2022/10/18 06:40:14;;;;;;;;;30.67;25.33;;;;;;;;5016783;28;45312;-70
2022/10/18 06:42:39;;;;;;;;;27.67;23.00;;;;;;;;5016704;28;46498;-71
2022/10/18 06:45:05;;;;;;;;;25.33;22.33;;;;;;;;5015667;28;45349;-71
2022/10/18 06:47:30;;;;;;;;;23.00;21.50;;;;;;;;5015164;28;45275;-74
2022/10/18 06:49:55;;;;;;;;;30.33;28.67;;;;;;;;5016533;28;45266;-72
2022/10/18 06:52:24;;;;;;;;;37.33;29.67;;;;;;;;5006997;28;45486;-70
2022/10/18 06:54:49;;;;;;;;;27.67;21.67;;;;;;;;4997092;28;45268;-71
2022/10/18 06:57:15;;;;;;;;;29.00;28.00;;;;;;;;5004533;28;45312;-71
2022/10/18 06:59:40;;;;;;;;;29.00;27.00;;;;;;;;5016563;28;45723;-67
2022/10/18 07:02:05;;;;;;;;;28.67;28.33;;;;;;;;5014906;28;46370;-74
2022/10/18 07:04:30;;;;;;;;;30.67;26.00;;;;;;;;5016890;28;45405;-74
2022/10/18 07:06:55;;;;;;;;;30.00;26.67;;;;;;;;5016405;28;45524;-70
2022/10/18 07:09:21;;;;;;;;;23.67;18.00;;;;;;;;5015954;28;45409;-74
2022/10/18 07:11:46;;;;;;;;;34.33;29.00;;;;;;;;5016847;28;46292;-75
2022/10/18 07:14:11;;;;;;;;;28.33;26.67;;;;;;;;5019757;28;45508;-74
2022/10/18 07:16:36;;;;;;;;;30.33;27.33;;;;;;;;5019981;28;45392;-71
2022/10/18 07:19:02;;;;;;;;;40.67;33.33;;;;;;;;5019033;28;45406;-71
2022/10/18 07:21:27;;;;;;;;;22.33;20.67;;;;;;;;5019577;28;46582;-72
2022/10/18 07:23:52;;;;;;;;;32.33;28.33;;;;;;;;5019358;28;45443;-71
2022/10/18 07:26:22;;;;;;;;;36.33;30.00;;;;;;;;5020095;28;45285;-73
2022/10/18 07:28:56;;;;;;;;;29.67;25.33;;;;;;;;5020167;28;45447;-70
2022/10/18 07:31:22;;;;;;;;;30.67;28.33;;;;;;;;5018943;28;47360;-71
2022/10/18 07:33:47;;;;;;;;;33.67;30.67;;;;;;;;5018300;28;45887;-70
2022/10/18 07:36:13;;;;;;;;;41.67;37.00;;;;;;;;5017579;28;45432;-73
2022/10/18 07:38:38;;;;;;;;;29.67;26.00;;;;;;;;5020066;28;45357;-70
2022/10/18 07:41:05;;;;;;;;;36.67;30.00;;;;;;;;5019671;28;46280;-71
2022/10/18 07:43:31;;;;;;;;;38.00;30.67;;;;;;;;5018936;28;45407;-72
2022/10/18 07:45:57;;;;;;;;;31.00;27.00;;;;;;;;5019013;28;46681;-69
2022/10/18 07:48:22;;;;;;;;;29.33;26.67;;;;;;;;5017804;28;45426;-70
2022/10/18 07:50:48;;;;;;;;;34.00;28.00;;;;;;;;5019162;28;46201;-68
2022/10/18 07:53:13;;;;;;;;;37.00;34.00;;;;;;;;5019569;28;45284;-69
2022/10/18 07:55:38;;;;;;;;;30.00;25.67;;;;;;;;5019559;28;45590;-68
2022/10/18 07:58:03;;;;;;;;;36.00;29.00;;;;;;;;5017830;28;45277;-68
2022/10/18 08:00:29;;;;;;;;;40.33;32.00;;;;;;;;5018463;28;45453;-71
2022/10/18 08:02:55;;;;;;;;;27.67;21.67;;;;;;;;5018900;28;45384;-69
2022/10/18 08:05:20;;;;;;;;;36.67;29.00;;;;;;;;5018245;28;45356;-70
2022/10/18 08:07:45;;;;;;;;;40.00;31.67;;;;;;;;5016828;28;45282;-68
2022/10/18 08:10:10;;;;;;;;;41.67;32.33;;;;;;;;5019105;28;45521;-67
2022/10/18 08:12:35;;;;;;;;;36.67;34.33;;;;;;;;5018019;28;45397;-68
2022/10/18 08:15:01;;;;;;;;;35.67;32.00;;;;;;;;5019254;28;45325;-69
2022/10/18 08:17:26;;;;;;;;;37.00;32.00;;;;;;;;5019676;28;45464;-68
2022/10/18 08:19:51;;;;;;;;;39.67;34.00;;;;;;;;5018981;28;46272;-68
2022/10/18 08:22:16;;;;;;;;;36.33;31.67;;;;;;;;5019000;28;45436;-67
2022/10/18 08:24:41;;;;;;;;;33.00;31.00;;;;;;;;5017086;28;45314;-67
2022/10/18 08:27:07;;;;;;;;;40.33;32.33;;;;;;;;5019232;28;45534;-67
2022/10/18 08:29:32;;;;;;;;;40.00;32.67;;;;;;;;5018796;28;45364;-67
2022/10/18 08:31:57;;;;;;;;;35.00;30.33;;;;;;;;5015141;28;45697;-68
2022/10/18 08:34:22;;;;;;;;;36.33;31.67;;;;;;;;5001922;28;45417;-68
2022/10/18 08:36:48;;;;;;;;;37.33;30.67;;;;;;;;5011855;28;45325;-68
2022/10/18 08:39:13;;;;;;;;;35.33;30.67;;;;;;;;5018535;28;45357;-69
2022/10/18 08:41:50;;;;;;;;;28.00;25.67;;;;;;;;5017144;28;45297;-69
2022/10/18 08:44:30;;;;;;;;;37.67;30.67;;;;;;;;5008848;28;45595;-69
2022/10/18 08:47:01;;;;;;;;;36.00;26.67;;;;;;;;5014566;28;46144;-69
2022/10/18 08:49:31;;;;;;;;;38.67;32.33;;;;;;;;5013698;28;46339;-70
2022/10/18 08:51:56;;;;;;;;;31.33;26.67;;;;;;;;5013279;28;45262;-70
2022/10/18 08:54:25;;;;;;;;;34.33;30.33;;;;;;;;5015523;28;45178;-69
2022/10/18 08:57:12;;;;;;;;;46.00;33.33;;;;;;;;5015881;28;45397;-68
2022/10/18 08:59:38;;;;;;;;;33.33;31.33;;;;;;;;5010343;28;46247;-68
2022/10/18 09:02:22;;;;;;;;;39.33;32.67;;;;;;;;5018422;28;45399;-70
2022/10/18 09:04:47;;;;;;;;;33.67;30.33;;;;;;;;5016338;28;45412;-69
2022/10/18 09:07:19;;;;;;;;;37.00;31.67;;;;;;;;5015077;28;45409;-67
2022/10/18 09:09:44;;;;;;;;;36.00;31.00;;;;;;;;5011287;28;46566;-68
2022/10/18 09:12:35;;;;;;;;;35.67;30.33;;;;;;;;5012631;28;45501;-68
2022/10/18 09:15:07;;;;;;;;;32.67;30.33;;;;;;;;5009563;28;45677;-68
2022/10/18 09:17:58;;;;;;;;;34.67;30.67;;;;;;;;5015214;28;45482;-69
2022/10/18 09:20:46;;;;;;;;;30.67;29.33;;;;;;;;5015894;28;46603;-70
2022/10/18 09:23:17;;;;;;;;;33.33;25.00;;;;;;;;5015711;28;45388;-69
2022/10/18 09:25:44;;;;;;;;;30.67;26.00;;;;;;;;5015317;28;45287;-70
2022/10/18 09:28:25;;;;;;;;;29.00;24.00;;;;;;;;5015942;28;45198;-71
2022/10/18 09:30:59;;;;;;;;;28.67;28.00;;;;;;;;5004349;28;45456;-71
2022/10/18 09:33:31;;;;;;;;;30.67;28.00;;;;;;;;5013638;28;45496;-72
2022/10/18 09:35:59;;;;;;;;;42.67;32.33;;;;;;;;5015063;28;45311;-71
2022/10/18 09:38:29;;;;;;;;;28.67;25.67;;;;;;;;5018041;28;45326;-70
2022/10/18 09:41:00;;;;;;;;;27.33;24.67;;;;;;;;5017680;28;45541;-70
2022/10/18 09:43:34;;;;;;;;;27.33;25.33;;;;;;;;5016846;28;45346;-72
2022/10/18 09:45:59;;;;;;;;;29.00;25.33;;;;;;;;5016350;28;45273;-70
2022/10/18 09:48:27;;;;;;;;;39.00;31.67;;;;;;;;5017823;28;45305;-71
2022/10/18 09:50:58;;;;;;;;;27.67;25.67;;;;;;;;5017404;28;46381;-75
2022/10/18 09:53:36;;;;;;;;;29.67;24.67;;;;;;;;5010881;28;45420;-70
2022/10/18 09:56:01;;;;;;;;;28.33;25.67;;;;;;;;5014740;28;45428;-72
2022/10/18 09:58:30;;;;;;;;;30.00;22.00;;;;;;;;5016025;28;45547;-72
2022/10/18 10:00:56;;;;;;;;;23.00;21.67;;;;;;;;5017340;28;45637;-72
2022/10/18 10:03:21;;;;;;;;;22.33;19.00;;;;;;;;5016772;28;45324;-73
2022/10/18 10:06:00;;;;;;;;;22.00;21.00;;;;;;;;5016402;28;45373;-71
2022/10/18 10:08:31;;;;;;;;;23.00;16.67;;;;;;;;5016152;28;45542;-72
2022/10/18 10:10:56;;;;;;;;;24.67;23.67;;;;;;;;5012844;28;45513;-75
2022/10/18 10:13:26;;;;;;;;;19.33;16.33;;;;;;;;5016247;28;45520;-75
2022/10/18 10:15:51;;;;;;;;;20.00;17.00;;;;;;;;5016705;28;45551;-73
2022/10/18 10:18:21;;;;;;;;;17.33;15.67;;;;;;;;5005062;28;45678;-74
2022/10/18 10:20:52;;;;;;;;;17.33;17.00;;;;;;;;5012079;28;46357;-69
2022/10/18 10:23:23;;;;;;;;;16.67;13.33;;;;;;;;5014055;28;45519;-71
2022/10/18 10:25:53;;;;;;;;;14.33;13.33;;;;;;;;5014474;28;45377;-71
2022/10/18 10:28:47;;;;;;;;;15.67;12.33;;;;;;;;5015601;28;45471;-71
2022/10/18 10:31:28;;;;;;;;;14.67;11.00;;;;;;;;5009677;28;46659;-74
2022/10/18 10:34:01;;;;;;;;;21.33;16.00;;;;;;;;5016200;28;45429;-72
2022/10/18 10:36:26;;;;;;;;;20.00;19.67;;;;;;;;5016464;28;45464;-73
2022/10/18 10:39:03;;;;;;;;;17.33;12.67;;;;;;;;5016228;28;45423;-73
2022/10/18 10:41:29;;;;;;;;;12.00;10.33;;;;;;;;5014717;28;45778;-71
2022/10/18 10:43:54;;;;;;;;;17.67;16.33;;;;;;;;5016302;28;45323;-70
2022/10/18 10:46:21;;;;;;;;;21.00;15.33;;;;;;;;5016315;28;45353;-74
2022/10/18 10:48:50;;;;;;;;;18.00;16.00;;;;;;;;5014342;28;45852;-74
2022/10/18 10:51:17;;;;;;;;;16.00;16.00;;;;;;;;5019505;28;47411;-70
2022/10/18 10:54:03;;;;;;;;;24.33;17.00;;;;;;;;5019506;28;45491;-71
2022/10/18 10:56:33;;;;;;;;;19.33;17.33;;;;;;;;5015746;28;45428;-70
2022/10/18 10:59:11;;;;;;;;;21.67;19.00;;;;;;;;5017023;28;45423;-74
2022/10/18 11:01:37;;;;;;;;;22.67;21.67;;;;;;;;5017253;28;46699;-73
2022/10/18 11:04:22;;;;;;;;;23.00;18.33;;;;;;;;5017106;28;45888;-76
2022/10/18 11:07:19;;;;;;;;;19.00;16.33;;;;;;;;5017838;28;45566;-75
2022/10/18 11:09:49;;;;;;;;;15.00;13.33;;;;;;;;5015492;28;45694;-73
2022/10/18 11:12:14;;;;;;;;;18.33;15.33;;;;;;;;5015311;28;45500;-75
2022/10/18 11:14:41;;;;;;;;;11.00;11.00;;;;;;;;5016624;28;45485;-72
2022/10/18 11:17:20;;;;;;;;;13.67;12.33;;;;;;;;5016736;28;45453;-75
2022/10/18 11:20:04;;;;;;;;;16.67;13.00;;;;;;;;5016346;28;45574;-69
2022/10/18 11:22:35;;;;;;;;;14.67;9.00;;;;;;;;5015902;28;45546;-81
2022/10/18 11:25:01;;;;;;;;;12.00;9.00;;;;;;;;5016909;28;45453;-74
2022/10/18 11:27:39;;;;;;;;;14.33;11.00;;;;;;;;5015244;28;45496;-71
2022/10/18 11:30:31;;;;;;;;;15.33;9.00;;;;;;;;5012810;28;45567;-69
2022/10/18 11:33:06;;;;;;;;;11.00;8.33;;;;;;;;5013550;28;46681;-68
2022/10/18 11:35:40;;;;;;;;;10.67;7.67;;;;;;;;5015857;28;45804;-69
2022/10/18 11:38:13;;;;;;;;;7.00;7.00;;;;;;;;5014984;28;45476;-68
2022/10/18 11:40:44;;;;;;;;;8.67;7.33;;;;;;;;5014270;28;45492;-71
2022/10/18 11:43:09;;;;;;;;;7.67;5.33;;;;;;;;5012741;28;46327;-72
2022/10/18 11:45:53;;;;;;;;;8.67;7.00;;;;;;;;5018000;28;45477;-71
2022/10/18 11:48:18;;;;;;;;;19.67;16.33;;;;;;;;5019263;28;45461;-71
2022/10/18 11:50:55;;;;;;;;;6.00;6.00;;;;;;;;5019681;28;45377;-70
2022/10/18 11:53:27;;;;;;;;;6.75;4.00;;;;;;;;5015584;28;46344;-72
2022/10/18 11:55:54;;;;;;;;;6.00;3.25;;;;;;;;5016972;28;45462;-73
2022/10/18 11:58:20;;;;;;;;;9.00;6.67;;;;;;;;5015007;28;46108;-71
2022/10/18 12:00:47;;;;;;;;;10.00;5.67;;;;;;;;5018642;28;45273;-72
2022/10/18 12:03:19;;;;;;;;;5.33;3.67;;;;;;;;5017979;28;45455;-73
2022/10/18 12:05:46;;;;;;;;;4.75;4.00;;;;;;;;5019266;28;45344;-76
2022/10/18 12:08:16;;;;;;;;;2.50;2.50;;;;;;;;5019441;28;45345;-76
2022/10/18 12:10:49;;;;;;;;;9.00;6.00;;;;;;;;5019550;28;45538;-75
2022/10/18 12:13:22;;;;;;;;;6.67;5.00;;;;;;;;5000945;28;45569;-71
2022/10/18 12:15:49;;;;;;;;;6.33;5.00;;;;;;;;4999231;28;45432;-73
2022/10/18 12:18:20;;;;;;;;;7.33;5.00;;;;;;;;5015320;28;45432;-71
2022/10/18 12:20:51;;;;;;;;;6.33;6.00;;;;;;;;5018014;28;45312;-71
2022/10/18 12:23:28;;;;;;;;;6.67;5.33;;;;;;;;5016266;28;45649;-72
2022/10/18 12:25:55;;;;;;;;;4.33;4.33;;;;;;;;5014758;28;45473;-71
2022/10/18 12:28:28;;;;;;;;;6.00;4.33;;;;;;;;5018930;28;45492;-71
2022/10/18 12:30:57;;;;;;;;;7.00;4.00;;;;;;;;5018290;28;45516;-71
2022/10/18 12:33:26;;;;;;;;;4.67;4.00;;;;;;;;5018135;28;46270;-71
2022/10/18 12:35:55;;;;;;;;;4.50;3.00;;;;;;;;5016902;28;45377;-71
2022/10/18 12:38:24;;;;;;;;;2.00;2.00;;;;;;;;5018328;28;45429;-70
2022/10/18 12:40:52;;;;;;;;;5.00;5.00;;;;;;;;5018165;28;45488;-70
2022/10/18 12:43:21;;;;;;;;;1.75;1.25;;;;;;;;5018025;28;45558;-70
2022/10/18 12:46:07;;;;;;;;;7.00;4.00;;;;;;;;5018697;28;45371;-70
2022/10/18 12:48:35;;;;;;;;;5.00;3.00;;;;;;;;5017591;28;45378;-71
2022/10/18 12:51:06;;;;;;;;;1.75;1.75;;;;;;;;5015362;28;45515;-70
2022/10/18 12:53:32;;;;;;;;;5.25;2.00;;;;;;;;5017372;28;46287;-71
2022/10/18 12:56:16;;;;;;;;;1.75;1.75;;;;;;;;5017536;28;45416;-72
2022/10/18 12:58:41;;;;;;;;;5.25;2.00;;;;;;;;5017893;28;45299;-71
2022/10/18 13:01:07;;;;;;;;;0.50;0.50;;;;;;;;5018662;28;45346;-71
2022/10/18 13:03:40;;;;;;;;;2.50;2.00;;;;;;;;5017616;28;46470;-71
2022/10/18 13:06:05;;;;;;;;;3.25;2.00;;;;;;;;5017660;28;45555;-71
2022/10/18 13:08:30;;;;;;;;;7.00;3.75;;;;;;;;5017818;28;45420;-71
2022/10/18 13:11:11;;;;;;;;;3.00;2.75;;;;;;;;5017195;28;45472;-71
2022/10/18 13:13:54;;;;;;;;;3.00;3.00;;;;;;;;5017639;28;45546;-71
2022/10/18 13:16:21;;;;;;;;;2.25;2.00;;;;;;;;5017566;28;45380;-73
2022/10/18 13:18:58;;;;;;;;;3.00;2.00;;;;;;;;5018227;28;45391;-74
2022/10/18 13:21:23;;;;;;;;;4.00;4.00;;;;;;;;5017799;28;45518;-73
2022/10/18 13:24:02;;;;;;;;;5.00;3.00;;;;;;;;5015805;28;45955;-72
2022/10/18 13:26:36;;;;;;;;;5.25;4.25;;;;;;;;5015674;28;45350;-73
2022/10/18 13:29:20;;;;;;;;;5.75;4.75;;;;;;;;5017654;28;45519;-75
2022/10/18 13:31:51;;;;;;;;;6.25;4.00;;;;;;;;5017496;28;45407;-76
2022/10/18 13:34:22;;;;;;;;;3.75;2.00;;;;;;;;5017089;28;45395;-74
2022/10/18 13:37:06;;;;;;;;;1.00;0.75;;;;;;;;5035957;28;45454;-75
2022/10/18 13:39:32;;;;;;;;;0.50;0.50;;;;;;;;5037376;28;45501;-74
2022/10/18 13:41:57;;;;;;;;;3.00;1.50;;;;;;;;5031198;28;45475;-72
2022/10/18 13:44:22;;;;;;;;;1.50;1.50;;;;;;;;5017191;28;46297;-76
2022/10/18 13:46:47;;;;;;;;;2.50;1.00;;;;;;;;5016938;28;45293;-74
2022/10/18 13:49:15;;;;;;;;;1.75;1.50;;;;;;;;5015691;28;45484;-73
2022/10/18 13:51:51;;;;;;;;;3.00;3.00;;;;;;;;5002592;28;45577;-73
2022/10/18 13:54:22;;;;;;;;;29.33;27.67;;;;;;;;5016552;28;45781;-74
2022/10/18 13:56:51;;;;;;;;;3.00;2.75;;;;;;;;5016693;28;45535;-75
2022/10/18 13:59:39;;;;;;;;;2.50;2.00;;;;;;;;5016812;28;45530;-72
2022/10/18 14:02:16;;;;;;;;;2.50;1.50;;;;;;;;5016965;28;45801;-77
2022/10/18 14:05:00;;;;;;;;;4.00;1.25;;;;;;;;5016692;28;47249;-73
2022/10/18 14:07:25;;;;;;;;;3.25;1.50;;;;;;;;5016281;28;45514;-70
2022/10/18 14:09:52;;;;;;;;;1.00;1.00;;;;;;;;5027664;28;45492;-75
2022/10/18 14:12:34;;;;;;;;;0.00;0.00;;;;;;;;5036542;28;45436;-68
2022/10/18 14:15:06;;;;;;;;;3.25;2.00;;;;;;;;5021892;28;46207;-74
2022/10/18 14:17:41;;;;;;;;;1.00;1.00;;;;;;;;5016303;28;45881;-75
2022/10/18 14:20:12;;;;;;;;;0.75;0.75;;;;;;;;5014017;28;45389;-72
2022/10/18 14:22:42;;;;;;;;;1.00;1.00;;;;;;;;5007006;28;45406;-74
2022/10/18 14:25:21;;;;;;;;;3.00;3.00;;;;;;;;5008726;28;45463;-76
2022/10/18 14:27:46;;;;;;;;;4.50;1.75;;;;;;;;5016367;28;45757;-75
2022/10/18 14:30:17;;;;;;;;;0.00;0.00;;;;;;;;5016414;28;45297;-76